createdAt,value
2022-11-17T13:04:24.722Z,15.56
2022-11-17T13:07:08.140Z,15.78
2022-11-17T13:09:36.309Z,15.88
2022-11-17T13:12:07.703Z,15.60
2022-11-17T13:14:35.930Z,15.69
2022-11-17T13:17:02.941Z,15.62
2022-11-17T13:19:33.021Z,15.51
2022-11-17T13:22:13.723Z,15.36
2022-11-17T13:24:41.988Z,15.49
2022-11-17T13:27:27.289Z,15.47
2022-11-17T13:30:12.664Z,15.64
2022-11-17T13:32:40.327Z,15.59
2022-11-17T13:35:23.274Z,15.80
2022-11-17T13:38:06.621Z,15.64
2022-11-17T13:40:34.891Z,15.64
2022-11-17T13:43:03.284Z,15.65
2022-11-17T13:45:29.954Z,15.67
2022-11-17T13:47:58.229Z,15.66
2022-11-17T13:50:27.557Z,15.58
2022-11-17T13:52:56.080Z,15.56
2022-11-17T13:55:24.051Z,15.78
2022-11-17T13:58:26.902Z,15.81
2022-11-17T14:00:57.207Z,15.76
2022-11-17T14:03:37.135Z,15.66
2022-11-17T14:06:13.849Z,15.63
2022-11-17T14:08:42.828Z,15.79
2022-11-17T14:11:12.334Z,15.45
2022-11-17T14:13:43.368Z,15.40
2022-11-17T14:16:21.523Z,15.40
2022-11-17T14:19:02.840Z,15.20
2022-11-17T14:21:30.456Z,15.18
2022-11-17T14:24:11.400Z,15.12
2022-11-17T14:26:44.646Z,15.15
2022-11-17T14:29:12.632Z,15.22
2022-11-17T14:31:39.191Z,15.12
2022-11-17T14:34:05.717Z,15.09
2022-11-17T14:36:32.631Z,14.87
2022-11-17T14:39:00.688Z,14.89
2022-11-17T14:41:27.243Z,14.87
2022-11-17T14:43:53.797Z,14.83
2022-11-17T14:46:26.872Z,14.70
2022-11-17T14:48:54.086Z,14.76
2022-11-17T14:51:21.267Z,14.59
2022-11-17T14:53:48.178Z,14.60
2022-11-17T14:56:17.727Z,14.67
2022-11-17T14:58:45.158Z,14.64
2022-11-17T15:01:15.555Z,14.51
2022-11-17T15:03:42.083Z,14.49
2022-11-17T15:06:09.545Z,14.50
2022-11-17T15:08:36.707Z,14.53
2022-11-17T15:11:04.086Z,14.44
2022-11-17T15:13:31.126Z,14.34
2022-11-17T15:16:05.053Z,14.32
2022-11-17T15:18:32.191Z,14.26
2022-11-17T15:21:04.694Z,14.24
2022-11-17T15:23:31.762Z,14.18
2022-11-17T15:25:58.618Z,14.28
2022-11-17T15:28:29.089Z,14.30
2022-11-17T15:30:57.043Z,14.27
2022-11-17T15:33:23.912Z,14.25
2022-11-17T15:36:03.641Z,14.17
2022-11-17T15:38:31.458Z,14.11
2022-11-17T15:40:57.999Z,14.05
2022-11-17T15:43:32.405Z,14.01
2022-11-17T15:46:06.768Z,14.03
2022-11-17T15:48:34.558Z,13.97
2022-11-17T15:51:05.130Z,14.01
2022-11-17T15:53:32.943Z,13.99
2022-11-17T15:56:08.206Z,13.95
2022-11-17T15:58:34.935Z,13.78
2022-11-17T16:01:28.366Z,13.92
2022-11-17T16:04:00.855Z,13.92
2022-11-17T16:06:28.430Z,13.86
2022-11-17T16:08:54.991Z,13.83
2022-11-17T16:11:21.917Z,13.87
2022-11-17T16:13:48.469Z,13.82
2022-11-17T16:16:15.706Z,13.85
2022-11-17T16:18:48.184Z,13.84
2022-11-17T16:21:15.599Z,13.76
2022-11-17T16:23:44.389Z,13.75
2022-11-17T16:26:12.031Z,13.72
2022-11-17T16:28:39.089Z,13.69
2022-11-17T16:31:22.741Z,13.67
2022-11-17T16:33:54.490Z,13.65
2022-11-17T16:36:23.568Z,13.62
2022-11-17T16:39:01.882Z,13.66
2022-11-17T16:41:31.892Z,13.65
2022-11-17T16:43:58.632Z,13.61
2022-11-17T16:46:29.057Z,13.60
2022-11-17T16:48:56.465Z,13.57
2022-11-17T16:51:23.034Z,13.52
2022-11-17T16:53:55.832Z,13.45
2022-11-17T16:56:22.434Z,13.41
2022-11-17T16:58:50.041Z,13.41
2022-11-17T17:01:18.916Z,13.47
2022-11-17T17:03:45.687Z,13.42
2022-11-17T17:06:14.241Z,13.39
2022-11-17T17:08:41.113Z,13.47
2022-11-17T17:11:16.101Z,13.43
2022-11-17T17:13:43.222Z,13.38
2022-11-17T17:16:12.122Z,13.34
2022-11-17T17:18:39.065Z,13.33
2022-11-17T17:21:06.448Z,13.35
2022-11-17T17:23:34.384Z,13.27
2022-11-17T17:26:08.339Z,13.33
2022-11-17T17:28:36.866Z,13.17
2022-11-17T17:31:04.251Z,13.34
2022-11-17T17:33:32.527Z,13.23
2022-11-17T17:36:07.324Z,13.16
2022-11-17T17:38:34.032Z,13.24
2022-11-17T17:41:08.299Z,13.18
2022-11-17T17:43:35.378Z,13.20
2022-11-17T17:46:02.982Z,13.18
2022-11-17T17:48:33.725Z,13.16
2022-11-17T17:51:04.732Z,13.20
2022-11-17T17:53:31.685Z,13.16
2022-11-17T17:55:59.622Z,13.13
2022-11-17T17:58:26.175Z,13.21
2022-11-17T18:00:52.872Z,13.20
2022-11-17T18:03:19.479Z,13.24
2022-11-17T18:05:46.691Z,13.29
2022-11-17T18:08:13.234Z,13.23
2022-11-17T18:10:39.878Z,13.22
2022-11-17T18:13:10.608Z,13.24
2022-11-17T18:15:39.583Z,13.26
2022-11-17T18:18:06.314Z,13.21
2022-11-17T18:20:32.858Z,13.21
2022-11-17T18:22:59.403Z,13.20
2022-11-17T18:25:25.918Z,13.21
2022-11-17T18:27:52.455Z,13.23
2022-11-17T18:30:19.075Z,13.21
2022-11-17T18:32:45.639Z,13.13
2022-11-17T18:35:12.221Z,13.18
2022-11-17T18:37:38.754Z,13.22
2022-11-17T18:40:05.844Z,13.22
2022-11-17T18:42:32.567Z,13.21
2022-11-17T18:44:59.158Z,13.22
2022-11-17T18:47:25.708Z,13.21
2022-11-17T18:49:52.345Z,13.21
2022-11-17T18:52:19.000Z,13.19
2022-11-17T18:54:45.697Z,13.19
2022-11-17T18:57:12.543Z,13.18
2022-11-17T18:59:39.092Z,13.20
2022-11-17T19:02:05.759Z,13.17
2022-11-17T19:04:32.475Z,13.16
2022-11-17T19:06:59.067Z,13.15
2022-11-17T19:09:25.745Z,13.14
2022-11-17T19:11:52.802Z,13.18
2022-11-17T19:14:19.361Z,13.16
2022-11-17T19:16:45.996Z,13.19
2022-11-17T19:19:13.475Z,13.18
2022-11-17T19:21:40.536Z,13.13
2022-11-17T19:24:07.614Z,13.11
2022-11-17T19:26:35.839Z,13.15
2022-11-17T19:29:05.356Z,13.15
2022-11-17T19:31:33.034Z,13.15
2022-11-17T19:33:59.743Z,13.18
2022-11-17T19:36:29.390Z,13.08
2022-11-17T19:38:57.973Z,13.13
2022-11-17T19:41:26.673Z,13.11
2022-11-17T19:43:53.775Z,13.13
2022-11-17T19:46:20.634Z,13.11
2022-11-17T19:48:47.277Z,13.11
2022-11-17T19:51:19.906Z,13.11
2022-11-17T19:53:52.389Z,13.07
2022-11-17T19:56:19.521Z,13.10
2022-11-17T19:58:46.751Z,13.08
2022-11-17T20:01:15.758Z,13.08
2022-11-17T20:03:42.979Z,13.05
2022-11-17T20:06:11.396Z,13.08
2022-11-17T20:08:38.172Z,13.06
2022-11-17T20:11:07.115Z,13.01
2022-11-17T20:13:34.138Z,12.96
2022-11-17T20:16:05.190Z,12.98
2022-11-17T20:18:35.542Z,12.94
2022-11-17T20:21:08.031Z,12.95
2022-11-17T20:23:35.407Z,12.94
2022-11-17T20:26:12.714Z,12.94
2022-11-17T20:28:39.319Z,12.93
2022-11-17T20:31:10.416Z,12.98
2022-11-17T20:33:41.534Z,12.96
2022-11-17T20:36:09.758Z,12.90
2022-11-17T20:38:36.533Z,12.88
2022-11-17T20:41:03.835Z,12.89
2022-11-17T20:43:32.869Z,12.86
2022-11-17T20:45:59.580Z,12.89
2022-11-17T20:48:27.631Z,12.91
2022-11-17T20:50:58.250Z,12.87
2022-11-17T20:53:25.229Z,12.89
2022-11-17T20:55:51.930Z,12.87
2022-11-17T20:58:18.551Z,12.85
2022-11-17T21:00:45.227Z,12.80
2022-11-17T21:03:11.837Z,12.80
2022-11-17T21:05:38.408Z,12.75
2022-11-17T21:08:05.298Z,12.84
2022-11-17T21:10:31.984Z,12.82
2022-11-17T21:12:58.838Z,12.79
2022-11-17T21:15:25.502Z,12.80
2022-11-17T21:18:10.273Z,12.80
2022-11-17T21:20:36.777Z,12.83
2022-11-17T21:23:03.350Z,12.84
2022-11-17T21:25:29.859Z,12.84
2022-11-17T21:27:56.670Z,12.83
2022-11-17T21:30:23.187Z,12.68
2022-11-17T21:32:49.745Z,12.77
2022-11-17T21:35:16.227Z,12.73
2022-11-17T21:37:42.717Z,12.72
2022-11-17T21:40:09.610Z,12.69
2022-11-17T21:42:36.399Z,12.74
2022-11-17T21:45:03.007Z,12.72
2022-11-17T21:47:29.534Z,12.68
2022-11-17T21:49:56.058Z,12.65
2022-11-17T21:52:22.680Z,12.64
2022-11-17T21:54:49.162Z,12.63
2022-11-17T21:57:15.707Z,12.66
2022-11-17T21:59:42.204Z,12.64
2022-11-17T22:02:09.919Z,12.65
2022-11-17T22:04:36.465Z,12.62
2022-11-17T22:07:03.069Z,12.60
2022-11-17T22:09:29.623Z,12.58
2022-11-17T22:11:56.324Z,12.55
2022-11-17T22:14:22.991Z,12.57
2022-11-17T22:16:53.611Z,12.57
2022-11-17T22:19:21.859Z,12.56
2022-11-17T22:21:50.096Z,12.54
2022-11-17T22:24:17.178Z,12.54
2022-11-17T22:26:44.345Z,12.53
